createdAt,value
2023-05-02T00:00:45.593Z,2.20
2023-05-02T00:03:14.664Z,2.20
2023-05-02T00:05:44.559Z,2.03
2023-05-02T00:08:13.299Z,2.90
2023-05-02T00:10:41.819Z,2.13
2023-05-02T00:13:10.203Z,2.27
2023-05-02T00:15:38.681Z,2.03
2023-05-02T00:18:07.031Z,1.73
2023-05-02T00:20:35.502Z,1.93
2023-05-02T00:23:05.302Z,2.30
2023-05-02T00:25:33.624Z,1.90
2023-05-02T00:28:02.014Z,1.93
2023-05-02T00:30:30.588Z,1.90
2023-05-02T00:32:59.005Z,1.80
2023-05-02T00:35:27.362Z,1.90
2023-05-02T00:37:55.877Z,1.87
2023-05-02T00:40:25.632Z,2.00
2023-05-02T00:42:54.059Z,2.10
2023-05-02T00:45:22.457Z,2.10
2023-05-02T00:47:51.785Z,1.63
2023-05-02T00:50:20.797Z,1.97
2023-05-02T00:52:49.271Z,2.20
2023-05-02T00:55:17.664Z,1.80
2023-05-02T00:57:47.879Z,1.67
2023-05-02T01:00:16.276Z,2.20
2023-05-02T01:02:48.707Z,1.90
2023-05-02T01:05:20.115Z,2.00
2023-05-02T01:07:53.589Z,1.83
2023-05-02T01:10:25.630Z,1.87
2023-05-02T01:13:00.718Z,1.87
2023-05-02T01:15:29.509Z,1.90
2023-05-02T01:17:58.288Z,1.63
2023-05-02T01:20:28.727Z,2.00
2023-05-02T01:23:00.546Z,1.70
2023-05-02T01:25:31.832Z,1.83
2023-05-02T01:28:07.427Z,1.80
2023-05-02T01:30:38.761Z,1.73
2023-05-02T01:33:07.684Z,2.03
2023-05-02T01:35:37.185Z,2.17
2023-05-02T01:38:06.959Z,1.70
2023-05-02T01:40:36.656Z,2.53
2023-05-02T01:43:06.051Z,2.17
2023-05-02T01:45:37.554Z,1.90
2023-05-02T01:48:08.278Z,2.67
2023-05-02T01:50:38.254Z,2.00
2023-05-02T01:53:06.938Z,2.60
2023-05-02T01:55:37.487Z,1.93
2023-05-02T01:58:06.871Z,2.00
2023-05-02T02:00:35.679Z,1.93
2023-05-02T02:03:04.634Z,2.00
2023-05-02T02:05:36.000Z,1.97
2023-05-02T02:08:04.793Z,2.17
2023-05-02T02:10:37.498Z,2.10
2023-05-02T02:13:08.155Z,2.13
2023-05-02T02:15:37.554Z,2.20
2023-05-02T02:18:09.049Z,2.20
2023-05-02T02:20:39.840Z,1.67
2023-05-02T02:23:09.291Z,2.17
2023-05-02T02:25:38.034Z,2.03
2023-05-02T02:28:06.929Z,2.03
2023-05-02T02:30:35.676Z,1.90
2023-05-02T02:33:04.146Z,2.07
2023-05-02T02:35:35.844Z,2.37
2023-05-02T02:38:10.161Z,2.20
2023-05-02T02:40:43.302Z,2.17
2023-05-02T02:43:15.062Z,1.87
2023-05-02T02:45:48.498Z,2.57
2023-05-02T02:48:21.465Z,2.17
2023-05-02T02:50:56.260Z,2.17
2023-05-02T02:53:29.506Z,2.10
2023-05-02T02:56:00.054Z,2.00
2023-05-02T02:58:33.234Z,1.67
2023-05-02T03:01:04.843Z,2.10
2023-05-02T03:03:34.565Z,2.60
2023-05-02T03:06:03.120Z,1.53
2023-05-02T03:08:40.379Z,1.73
2023-05-02T03:11:09.235Z,2.20
2023-05-02T03:13:37.973Z,2.10
2023-05-02T03:16:27.372Z,2.00
2023-05-02T03:18:56.024Z,2.00
2023-05-02T03:21:24.382Z,2.27
2023-05-02T03:23:54.210Z,1.90
2023-05-02T03:26:22.641Z,1.90
2023-05-02T03:28:51.665Z,2.13
2023-05-02T03:31:20.185Z,1.90
2023-05-02T03:33:48.577Z,1.97
2023-05-02T03:36:17.118Z,2.03
2023-05-02T03:38:45.852Z,2.70
2023-05-02T03:41:15.778Z,2.00
2023-05-02T03:43:44.465Z,2.23
2023-05-02T03:46:12.936Z,2.40
2023-05-02T03:48:41.347Z,2.03
2023-05-02T03:51:10.036Z,2.23
2023-05-02T03:53:38.484Z,2.20
2023-05-02T03:56:08.101Z,2.40
2023-05-02T03:58:37.904Z,1.97
2023-05-02T04:01:06.478Z,1.90
2023-05-02T04:03:34.908Z,1.87
2023-05-02T04:06:03.456Z,2.10
2023-05-02T04:08:31.774Z,2.20
2023-05-02T04:11:00.151Z,2.37
2023-05-02T04:13:29.262Z,1.80
2023-05-02T04:15:59.297Z,2.00
2023-05-02T04:18:27.821Z,1.90
2023-05-02T04:20:56.104Z,2.07
2023-05-02T04:23:24.472Z,2.03
2023-05-02T04:25:53.910Z,1.73
2023-05-02T04:28:22.928Z,1.83
2023-05-02T04:30:51.594Z,1.80
2023-05-02T04:33:21.508Z,1.60
2023-05-02T04:35:49.928Z,2.17
2023-05-02T04:38:18.510Z,2.00
2023-05-02T04:40:47.072Z,1.87
2023-05-02T04:43:15.536Z,2.20
2023-05-02T04:45:43.873Z,1.90
2023-05-02T04:48:12.290Z,1.90
2023-05-02T04:50:42.038Z,1.73
2023-05-02T04:53:10.329Z,1.80
2023-05-02T04:55:39.462Z,2.30
2023-05-02T04:58:07.870Z,2.13
2023-05-02T05:00:36.327Z,1.97
2023-05-02T05:03:04.698Z,2.00
2023-05-02T05:05:33.154Z,1.63
2023-05-02T05:08:03.010Z,1.87
2023-05-02T05:10:31.884Z,1.70
2023-05-02T05:13:00.279Z,1.87
2023-05-02T05:15:28.761Z,1.73
2023-05-02T05:17:57.568Z,1.73
2023-05-02T05:20:25.964Z,1.40
2023-05-02T05:22:54.421Z,1.90
2023-05-02T05:25:24.154Z,1.80
2023-05-02T05:27:53.357Z,2.10
2023-05-02T05:30:21.833Z,1.97
2023-05-02T05:32:50.258Z,1.83
2023-05-02T05:35:18.617Z,1.63
2023-05-02T05:37:46.920Z,1.77
2023-05-02T05:40:16.915Z,1.90
2023-05-02T05:42:46.746Z,2.00
2023-05-02T05:45:17.093Z,1.80
2023-05-02T05:47:45.477Z,1.83
2023-05-02T05:50:13.932Z,1.40
2023-05-02T05:52:42.335Z,2.40
2023-05-02T05:55:11.407Z,1.97
2023-05-02T05:57:39.887Z,2.13
2023-05-02T06:00:11.118Z,1.97
2023-05-02T06:02:39.699Z,1.93
2023-05-02T06:05:08.495Z,2.70
2023-05-02T06:07:36.892Z,1.80
2023-05-02T06:10:05.385Z,2.13
2023-05-02T06:12:33.751Z,2.20
2023-05-02T06:15:02.139Z,2.23
2023-05-02T06:17:32.279Z,2.13
2023-05-02T06:20:00.905Z,1.93
2023-05-02T06:22:29.600Z,2.20
2023-05-02T06:24:57.991Z,2.23
2023-05-02T06:27:26.525Z,2.10
2023-05-02T06:29:54.948Z,2.10
2023-05-02T06:32:23.335Z,2.50
2023-05-02T06:34:53.088Z,2.13
2023-05-02T06:37:21.608Z,2.40
2023-05-02T06:39:49.961Z,2.50
2023-05-02T06:42:18.248Z,2.23
2023-05-02T06:44:46.568Z,2.97
2023-05-02T06:47:15.005Z,2.33
2023-05-02T06:49:43.390Z,2.47
2023-05-02T06:52:13.215Z,2.20
2023-05-02T06:54:42.480Z,2.37
2023-05-02T06:57:11.162Z,2.13
2023-05-02T06:59:39.494Z,2.67
2023-05-02T07:02:08.381Z,2.53
2023-05-02T07:04:36.795Z,1.93
2023-05-02T07:07:05.340Z,2.20
2023-05-02T07:09:35.076Z,2.57
2023-05-02T07:12:06.669Z,2.50
2023-05-02T07:14:35.263Z,2.40
2023-05-02T07:17:03.760Z,2.17
2023-05-02T07:19:32.247Z,2.30
2023-05-02T07:22:00.694Z,2.97
2023-05-02T07:24:29.111Z,2.70
2023-05-02T07:26:58.772Z,2.90
2023-05-02T07:29:27.089Z,2.83
2023-05-02T07:31:55.793Z,2.37
2023-05-02T07:34:24.294Z,2.43
2023-05-02T07:36:52.695Z,2.87
2023-05-02T07:39:21.279Z,2.77
2023-05-02T07:41:49.711Z,2.80
2023-05-02T07:44:19.522Z,2.70
2023-05-02T07:46:48.235Z,3.03
2023-05-02T07:49:16.983Z,3.10
2023-05-02T07:51:45.835Z,3.10
2023-05-02T07:54:17.610Z,3.17
2023-05-02T07:56:46.183Z,3.17
2023-05-02T07:59:14.714Z,3.33
2023-05-02T08:01:44.880Z,3.30
2023-05-02T08:04:13.454Z,2.90
2023-05-02T08:06:42.440Z,3.43
2023-05-02T08:09:10.899Z,3.30
2023-05-02T08:11:39.277Z,3.23
2023-05-02T08:14:07.545Z,3.60
2023-05-02T08:16:36.249Z,3.60
2023-05-02T08:19:06.331Z,3.77
2023-05-02T08:21:34.850Z,3.90
2023-05-02T08:24:03.248Z,4.50
2023-05-02T08:26:31.691Z,3.83
2023-05-02T08:29:00.230Z,4.10
2023-05-02T08:31:28.666Z,3.20
2023-05-02T08:33:57.261Z,4.00
2023-05-02T08:36:28.849Z,3.87
2023-05-02T08:38:57.225Z,4.10
2023-05-02T08:41:26.587Z,4.17
2023-05-02T08:43:55.279Z,4.07
2023-05-02T08:46:24.872Z,4.70
2023-05-02T08:48:54.222Z,4.87
2023-05-02T08:51:25.076Z,4.30
2023-05-02T08:53:56.635Z,4.93
2023-05-02T08:56:25.336Z,4.63
2023-05-02T08:58:53.978Z,4.23
2023-05-02T09:01:26.319Z,4.83
2023-05-02T09:03:56.079Z,5.93
2023-05-02T09:06:24.664Z,5.73
2023-05-02T09:08:53.478Z,5.30
2023-05-02T09:11:23.392Z,5.77
2023-05-02T09:13:52.698Z,5.77
2023-05-02T09:16:22.848Z,5.77
2023-05-02T09:18:52.263Z,4.50
2023-05-02T09:21:21.602Z,5.10
2023-05-02T09:23:50.648Z,6.30
2023-05-02T09:26:20.086Z,5.90
2023-05-02T09:28:50.805Z,5.90
2023-05-02T09:31:43.497Z,5.87
2023-05-02T09:34:13.085Z,5.97
2023-05-02T09:36:42.178Z,5.67
2023-05-02T09:39:11.988Z,5.33
2023-05-02T09:41:43.813Z,5.90
2023-05-02T09:44:13.889Z,5.30
2023-05-02T09:46:43.061Z,5.40
2023-05-02T09:49:11.581Z,5.00
2023-05-02T09:51:40.054Z,5.30
2023-05-02T09:54:08.940Z,5.60
2023-05-02T09:56:53.561Z,6.43
2023-05-02T09:59:23.313Z,5.10
2023-05-02T10:02:01.136Z,5.37
2023-05-02T10:04:30.848Z,5.30
2023-05-02T10:06:59.866Z,5.40
2023-05-02T10:09:28.722Z,4.80
2023-05-02T10:11:58.572Z,5.17
2023-05-02T10:14:29.825Z,5.57
2023-05-02T10:17:02.594Z,5.03
2023-05-02T10:19:32.375Z,5.60
2023-05-02T10:22:01.301Z,6.33
2023-05-02T10:24:30.345Z,5.67
2023-05-02T10:26:58.981Z,6.57
2023-05-02T10:29:30.942Z,5.17
2023-05-02T10:31:59.924Z,5.10
2023-05-02T10:34:29.492Z,5.40
2023-05-02T10:37:01.325Z,5.10
2023-05-02T10:39:29.870Z,5.20
2023-05-02T10:41:59.810Z,5.70
2023-05-02T10:44:36.162Z,5.23
2023-05-02T10:47:20.107Z,4.97
2023-05-02T10:49:52.460Z,5.13
2023-05-02T10:52:31.801Z,5.27
2023-05-02T10:55:17.447Z,5.10
2023-05-02T10:58:04.770Z,5.43
2023-05-02T11:00:35.162Z,5.87
2023-05-02T11:03:04.087Z,4.67
2023-05-02T11:05:37.122Z,4.67
2023-05-02T11:08:32.873Z,5.50
2023-05-02T11:11:33.530Z,5.53
2023-05-02T11:14:02.117Z,5.47
2023-05-02T11:16:52.697Z,5.87
2023-05-02T11:19:21.295Z,5.37
2023-05-02T11:21:49.674Z,5.10
2023-05-02T11:24:36.588Z,5.13
2023-05-02T11:27:39.114Z,5.00
2023-05-02T11:30:09.375Z,4.60
2023-05-02T11:32:59.456Z,4.20
2023-05-02T11:35:31.298Z,4.50
2023-05-02T11:38:00.341Z,2.93
2023-05-02T11:40:29.132Z,3.17
2023-05-02T11:42:58.671Z,3.10
2023-05-02T11:45:34.538Z,2.77
2023-05-02T11:48:02.980Z,3.47
2023-05-02T11:50:32.978Z,2.70
2023-05-02T11:53:02.028Z,2.80
2023-05-02T11:55:30.453Z,3.20
2023-05-02T11:57:58.829Z,2.67
2023-05-02T12:00:28.899Z,2.43
2023-05-02T12:02:57.317Z,3.27
2023-05-02T12:05:30.718Z,2.93
2023-05-02T12:08:01.161Z,3.20
2023-05-02T12:10:37.885Z,2.90
2023-05-02T12:13:07.320Z,4.00
2023-05-02T12:15:38.069Z,3.20
2023-05-02T12:18:06.658Z,4.50
2023-05-02T12:20:35.460Z,3.23
2023-05-02T12:23:07.092Z,3.50
2023-05-02T12:25:38.758Z,3.40
2023-05-02T12:28:07.665Z,3.43
2023-05-02T12:30:38.394Z,3.33
2023-05-02T12:33:07.536Z,3.23
2023-05-02T12:35:36.907Z,3.00
2023-05-02T12:38:14.233Z,3.13
2023-05-02T12:40:48.328Z,2.70
2023-05-02T12:43:16.930Z,3.57
2023-05-02T12:45:45.556Z,3.67
2023-05-02T12:48:24.276Z,3.17
2023-05-02T12:50:52.695Z,3.67
2023-05-02T12:53:35.919Z,3.70
2023-05-02T12:56:05.851Z,3.63
2023-05-02T12:58:42.001Z,4.07
2023-05-02T13:01:10.745Z,3.37
2023-05-02T13:03:39.270Z,3.20
2023-05-02T13:06:08.024Z,3.63
2023-05-02T13:08:37.104Z,3.40
2023-05-02T13:11:07.118Z,3.33
2023-05-02T13:13:35.675Z,3.43
2023-05-02T13:16:05.225Z,2.83
2023-05-02T13:18:33.845Z,3.03
2023-05-02T13:21:02.313Z,3.07
2023-05-02T13:23:30.719Z,3.43
2023-05-02T13:25:59.134Z,3.20
2023-05-02T13:28:33.245Z,2.97
2023-05-02T13:31:01.794Z,2.20
2023-05-02T13:33:30.199Z,2.30
2023-05-02T13:35:58.528Z,2.73
2023-05-02T13:38:27.117Z,2.30
2023-05-02T13:40:55.488Z,2.27
2023-05-02T13:43:24.403Z,2.20
2023-05-02T13:45:54.266Z,2.60
2023-05-02T13:48:22.881Z,2.10
2023-05-02T13:50:51.242Z,2.27
2023-05-02T13:53:19.933Z,2.20
2023-05-02T13:55:48.589Z,2.10
2023-05-02T13:58:16.963Z,2.07
2023-05-02T14:00:45.279Z,2.10
2023-05-02T14:03:15.184Z,2.10
2023-05-02T14:05:43.984Z,2.30
2023-05-02T14:08:12.417Z,2.17
2023-05-02T14:10:40.995Z,2.00
2023-05-02T14:13:09.378Z,2.20
2023-05-02T14:15:38.190Z,2.50
2023-05-02T14:18:06.715Z,1.77
2023-05-02T14:20:36.617Z,2.20
2023-05-02T14:23:06.919Z,1.80
2023-05-02T14:25:36.084Z,2.77
2023-05-02T14:28:04.554Z,2.67
2023-05-02T14:30:33.098Z,2.23
2023-05-02T14:33:01.495Z,1.93
2023-05-02T14:35:29.856Z,2.10
2023-05-02T14:37:59.873Z,2.30
2023-05-02T14:40:28.299Z,2.17
2023-05-02T14:42:56.643Z,2.43
2023-05-02T14:45:25.000Z,2.10
2023-05-02T14:47:53.508Z,1.73
2023-05-02T14:50:21.877Z,2.60
2023-05-02T14:52:50.245Z,2.20
2023-05-02T14:55:20.069Z,2.13
2023-05-02T14:57:48.386Z,2.23
2023-05-02T15:00:17.443Z,2.50
2023-05-02T15:02:46.096Z,2.07
2023-05-02T15:05:14.649Z,2.20
2023-05-02T15:07:42.933Z,2.60
2023-05-02T15:10:11.431Z,2.10
2023-05-02T15:12:43.197Z,2.30
2023-05-02T15:15:12.034Z,2.43
2023-05-02T15:17:40.504Z,2.50
2023-05-02T15:20:10.510Z,2.77
2023-05-02T15:22:38.885Z,2.70
2023-05-02T15:25:07.982Z,2.97
2023-05-02T15:27:36.454Z,2.80
2023-05-02T15:30:06.705Z,2.80
2023-05-02T15:32:35.302Z,2.63
2023-05-02T15:35:04.423Z,2.30
2023-05-02T15:37:32.900Z,2.30
2023-05-02T15:40:03.970Z,2.00
2023-05-02T15:42:33.856Z,2.50
2023-05-02T15:45:03.714Z,2.47
2023-05-02T15:47:33.557Z,2.67
2023-05-02T15:50:02.462Z,2.77
2023-05-02T15:52:30.972Z,2.80
2023-05-02T15:55:01.577Z,2.10
2023-05-02T15:57:30.064Z,2.67
2023-05-02T15:59:58.467Z,2.40
2023-05-02T16:02:26.846Z,2.40
2023-05-02T16:04:56.583Z,2.63
2023-05-02T16:07:25.006Z,2.67
2023-05-02T16:09:53.490Z,2.60
2023-05-02T16:12:21.861Z,2.47
2023-05-02T16:14:52.446Z,3.17
2023-05-02T16:17:21.078Z,3.23
2023-05-02T16:19:49.408Z,2.50
2023-05-02T16:22:19.092Z,2.90
2023-05-02T16:24:47.933Z,2.80
2023-05-02T16:27:16.435Z,2.63
2023-05-02T16:29:44.916Z,2.57
2023-05-02T16:32:13.552Z,3.00
2023-05-02T16:34:42.114Z,3.20
2023-05-02T16:37:11.185Z,3.00
2023-05-02T16:39:41.068Z,2.67
2023-05-02T16:42:09.484Z,2.70
2023-05-02T16:44:37.802Z,2.80
2023-05-02T16:47:06.271Z,2.97
2023-05-02T16:49:34.610Z,3.33
2023-05-02T16:52:02.926Z,2.80
2023-05-02T16:54:31.514Z,2.93
2023-05-02T16:57:03.207Z,3.13
2023-05-02T16:59:31.596Z,3.37
2023-05-02T17:02:00.149Z,3.07
2023-05-02T17:04:28.719Z,3.53
2023-05-02T17:06:57.088Z,3.33
2023-05-02T17:09:25.785Z,4.73
2023-05-02T17:11:54.172Z,7.60
2023-05-02T17:14:24.163Z,4.70
2023-05-02T17:16:52.597Z,4.57
2023-05-02T17:19:21.191Z,3.77
2023-05-02T17:21:49.635Z,3.23
2023-05-02T17:24:18.053Z,3.30
2023-05-02T17:26:46.384Z,4.03
2023-05-02T17:29:14.713Z,3.07
2023-05-02T17:31:44.471Z,3.30
2023-05-02T17:34:12.899Z,2.77
2023-05-02T17:36:42.019Z,3.07
2023-05-02T17:39:12.626Z,2.60
2023-05-02T17:41:41.431Z,2.70
2023-05-02T17:44:09.821Z,2.20
2023-05-02T17:46:38.532Z,2.43
2023-05-02T17:49:08.626Z,1.77
2023-05-02T17:51:37.123Z,1.90
2023-05-02T17:54:05.650Z,2.00
2023-05-02T17:56:36.772Z,2.30
2023-05-02T17:59:05.600Z,2.47
2023-05-02T18:01:34.117Z,1.77
2023-05-02T18:04:04.160Z,1.93
2023-05-02T18:06:34.475Z,2.57
2023-05-02T18:09:02.940Z,2.10
2023-05-02T18:11:32.114Z,2.10
2023-05-02T18:14:03.658Z,1.70
2023-05-02T18:16:34.107Z,2.10
2023-05-02T18:19:02.820Z,1.97
2023-05-02T18:21:32.838Z,1.90
2023-05-02T18:24:02.755Z,2.30
2023-05-02T18:26:31.538Z,3.00
2023-05-02T18:28:59.866Z,2.53
2023-05-02T18:31:28.293Z,2.37
2023-05-02T18:33:56.723Z,2.50
2023-05-02T18:36:28.862Z,2.50
2023-05-02T18:38:57.323Z,2.80
2023-05-02T18:41:27.077Z,2.73
2023-05-02T18:43:56.686Z,3.00
2023-05-02T18:46:25.963Z,3.37
2023-05-02T18:48:54.299Z,3.00
2023-05-02T18:51:22.714Z,3.10
2023-05-02T18:53:51.562Z,2.90
2023-05-02T18:56:20.064Z,3.00
2023-05-02T18:58:54.655Z,3.00
2023-05-02T19:01:23.056Z,3.00
2023-05-02T19:03:51.760Z,3.30
2023-05-02T19:06:20.470Z,2.83
2023-05-02T19:08:48.998Z,3.30
2023-05-02T19:11:17.397Z,2.67
2023-05-02T19:13:45.734Z,3.00
2023-05-02T19:16:15.804Z,2.90
2023-05-02T19:18:44.433Z,3.00
2023-05-02T19:21:13.756Z,3.20
2023-05-02T19:23:42.952Z,3.60
2023-05-02T19:26:14.811Z,3.00
2023-05-02T19:28:43.313Z,3.30
2023-05-02T19:31:11.965Z,3.30
2023-05-02T19:33:43.672Z,2.73
2023-05-02T19:36:12.350Z,3.20
2023-05-02T19:38:41.757Z,2.97
2023-05-02T19:41:10.340Z,2.93
2023-05-02T19:43:38.861Z,3.30
2023-05-02T19:46:07.246Z,3.17
2023-05-02T19:48:35.732Z,3.57
2023-05-02T19:51:06.128Z,3.83
2023-05-02T19:53:35.550Z,3.23
2023-05-02T19:56:04.813Z,2.97
2023-05-02T19:58:33.192Z,3.50
2023-05-02T20:01:01.692Z,3.80
2023-05-02T20:03:30.234Z,3.00
2023-05-02T20:05:58.833Z,2.80
2023-05-02T20:08:28.957Z,3.27
2023-05-02T20:10:57.444Z,3.23
2023-05-02T20:13:25.773Z,3.17
2023-05-02T20:15:54.802Z,3.30
2023-05-02T20:18:23.248Z,3.30
2023-05-02T20:20:51.820Z,3.10
2023-05-02T20:23:20.141Z,3.50
2023-05-02T20:25:49.902Z,3.57
2023-05-02T20:28:18.283Z,3.30
2023-05-02T20:30:46.726Z,3.03
2023-05-02T20:33:16.746Z,3.30
2023-05-02T20:35:46.351Z,3.67
2023-05-02T20:38:17.759Z,3.20
2023-05-02T20:40:46.169Z,3.30
2023-05-02T20:43:18.852Z,3.00
2023-05-02T20:45:47.291Z,3.10
2023-05-02T20:48:17.524Z,2.97
2023-05-02T20:50:53.255Z,2.80
2023-05-02T20:53:23.903Z,3.07
2023-05-02T20:55:52.478Z,2.80
2023-05-02T20:58:22.179Z,2.67
2023-05-02T21:00:52.526Z,2.93
2023-05-02T21:03:21.282Z,3.00
2023-05-02T21:05:53.502Z,3.30
2023-05-02T21:08:22.286Z,2.70
2023-05-02T21:10:51.509Z,2.70
2023-05-02T21:13:19.916Z,2.90
2023-05-02T21:15:49.837Z,2.67
2023-05-02T21:18:18.404Z,3.13
2023-05-02T21:20:48.760Z,2.53
2023-05-02T21:23:17.136Z,2.90
2023-05-02T21:25:45.557Z,3.10
2023-05-02T21:28:13.953Z,3.40
2023-05-02T21:30:42.650Z,2.70
2023-05-02T21:33:13.213Z,3.03
2023-05-02T21:35:41.682Z,3.57
2023-05-02T21:38:10.112Z,2.90
2023-05-02T21:40:38.663Z,3.43
2023-05-02T21:43:07.097Z,3.13
2023-05-02T21:45:35.458Z,3.10
2023-05-02T21:48:03.861Z,3.10
2023-05-02T21:50:34.014Z,3.20
2023-05-02T21:53:02.639Z,3.10
2023-05-02T21:55:30.966Z,3.17
2023-05-02T21:57:59.448Z,3.10
2023-05-02T22:00:28.096Z,3.37
2023-05-02T22:02:56.644Z,3.20
2023-05-02T22:05:25.196Z,2.30
2023-05-02T22:07:56.301Z,2.80
2023-05-02T22:10:24.673Z,3.23
2023-05-02T22:12:53.155Z,3.30
2023-05-02T22:15:21.528Z,3.00
2023-05-02T22:17:50.668Z,3.03
2023-05-02T22:20:19.064Z,2.67
2023-05-02T22:22:47.378Z,2.43
2023-05-02T22:25:17.145Z,3.00
2023-05-02T22:27:45.483Z,2.67
2023-05-02T22:30:14.055Z,2.77
2023-05-02T22:32:42.507Z,2.70
2023-05-02T22:35:11.336Z,3.13
2023-05-02T22:37:39.599Z,3.17
2023-05-02T22:40:10.375Z,2.93
2023-05-02T22:42:40.141Z,2.80
2023-05-02T22:45:09.496Z,3.07
2023-05-02T22:47:37.946Z,3.17
2023-05-02T22:50:06.681Z,2.60
2023-05-02T22:52:37.841Z,2.90
2023-05-02T22:55:09.325Z,2.83
2023-05-02T22:57:37.894Z,2.77
2023-05-02T23:00:09.552Z,2.80
2023-05-02T23:02:38.062Z,2.60
2023-05-02T23:05:06.953Z,2.60
2023-05-02T23:07:35.398Z,3.10
2023-05-02T23:10:03.944Z,2.80
2023-05-02T23:12:32.532Z,3.23
2023-05-02T23:15:01.005Z,2.97
2023-05-02T23:17:30.864Z,2.90
2023-05-02T23:19:59.380Z,2.93
2023-05-02T23:22:27.718Z,3.20
2023-05-02T23:24:56.116Z,3.50
2023-05-02T23:27:24.472Z,3.17
2023-05-02T23:29:52.866Z,2.93
2023-05-02T23:32:22.619Z,2.70
2023-05-02T23:34:53.450Z,3.00
2023-05-02T23:37:22.446Z,3.67
2023-05-02T23:39:50.821Z,2.90
2023-05-02T23:42:19.204Z,3.17
2023-05-02T23:44:47.580Z,3.40
2023-05-02T23:47:15.966Z,3.03
2023-05-02T23:49:44.344Z,3.30
2023-05-02T23:52:14.254Z,2.80
2023-05-02T23:54:42.790Z,2.70
2023-05-02T23:57:11.884Z,3.10
2023-05-02T23:59:40.442Z,2.70
